sensor_id;sensor_type;location;lat;lon;timestamp;temperature;humidity
67799;SHT30;54596;43.216;27.904;2023-08-06T00:02:03;24.60;92.88
67799;SHT30;54596;43.216;27.904;2023-08-06T00:04:28;24.61;92.93
67799;SHT30;54596;43.216;27.904;2023-08-06T00:06:53;24.61;93.00
67799;SHT30;54596;43.216;27.904;2023-08-06T00:09:19;24.60;92.97
67799;SHT30;54596;43.216;27.904;2023-08-06T00:11:44;24.53;92.80
67799;SHT30;54596;43.216;27.904;2023-08-06T00:14:12;24.55;92.66
67799;SHT30;54596;43.216;27.904;2023-08-06T00:16:37;24.57;92.56
67799;SHT30;54596;43.216;27.904;2023-08-06T00:19:03;24.55;92.48
67799;SHT30;54596;43.216;27.904;2023-08-06T00:21:28;24.51;92.42
67799;SHT30;54596;43.216;27.904;2023-08-06T00:23:54;24.53;92.28
67799;SHT30;54596;43.216;27.904;2023-08-06T00:26:19;24.53;92.32
67799;SHT30;54596;43.216;27.904;2023-08-06T00:28:45;24.50;92.40
67799;SHT30;54596;43.216;27.904;2023-08-06T00:31:10;24.48;92.41
67799;SHT30;54596;43.216;27.904;2023-08-06T00:33:36;24.45;92.49
67799;SHT30;54596;43.216;27.904;2023-08-06T00:36:01;24.45;92.52
67799;SHT30;54596;43.216;27.904;2023-08-06T00:38:26;24.43;92.44
67799;SHT30;54596;43.216;27.904;2023-08-06T00:40:52;24.47;92.50
67799;SHT30;54596;43.216;27.904;2023-08-06T00:43:18;24.43;92.60
67799;SHT30;54596;43.216;27.904;2023-08-06T00:45:44;24.44;92.65
67799;SHT30;54596;43.216;27.904;2023-08-06T00:48:10;24.47;92.59
67799;SHT30;54596;43.216;27.904;2023-08-06T00:50:35;24.48;92.60
67799;SHT30;54596;43.216;27.904;2023-08-06T00:53:01;24.53;92.55
67799;SHT30;54596;43.216;27.904;2023-08-06T00:55:27;24.54;92.55
67799;SHT30;54596;43.216;27.904;2023-08-06T00:57:53;24.60;92.40
67799;SHT30;54596;43.216;27.904;2023-08-06T01:00:22;24.61;92.40
67799;SHT30;54596;43.216;27.904;2023-08-06T01:02:48;24.61;92.32
67799;SHT30;54596;43.216;27.904;2023-08-06T01:05:14;24.64;92.24
67799;SHT30;54596;43.216;27.904;2023-08-06T01:07:55;24.67;92.22
67799;SHT30;54596;43.216;27.904;2023-08-06T01:15:48;24.60;92.16
67799;SHT30;54596;43.216;27.904;2023-08-06T01:18:15;24.57;92.25
67799;SHT30;54596;43.216;27.904;2023-08-06T01:20:41;24.55;92.23
67799;SHT30;54596;43.216;27.904;2023-08-06T01:23:07;24.50;92.30
67799;SHT30;54596;43.216;27.904;2023-08-06T01:31:24;24.51;92.30
67799;SHT30;54596;43.216;27.904;2023-08-06T01:33:53;24.51;92.39
67799;SHT30;54596;43.216;27.904;2023-08-06T01:36:19;24.50;92.42
67799;SHT30;54596;43.216;27.904;2023-08-06T01:38:45;24.45;92.51
67799;SHT30;54596;43.216;27.904;2023-08-06T01:41:11;24.44;92.62
67799;SHT30;54596;43.216;27.904;2023-08-06T01:43:37;24.40;92.63
67799;SHT30;54596;43.216;27.904;2023-08-06T01:46:02;24.41;92.83
67799;SHT30;54596;43.216;27.904;2023-08-06T01:48:27;24.38;93.02
67799;SHT30;54596;43.216;27.904;2023-08-06T01:50:53;24.37;93.04
67799;SHT30;54596;43.216;27.904;2023-08-06T01:53:18;24.38;93.15
67799;SHT30;54596;43.216;27.904;2023-08-06T01:55:48;24.41;93.18
67799;SHT30;54596;43.216;27.904;2023-08-06T01:58:13;24.40;93.21
67799;SHT30;54596;43.216;27.904;2023-08-06T02:00:40;24.36;93.24
67799;SHT30;54596;43.216;27.904;2023-08-06T02:03:05;24.40;93.25
67799;SHT30;54596;43.216;27.904;2023-08-06T02:05:31;24.31;93.30
67799;SHT30;54596;43.216;27.904;2023-08-06T02:07:56;24.36;93.22
67799;SHT30;54596;43.216;27.904;2023-08-06T02:10:22;24.31;93.25
67799;SHT30;54596;43.216;27.904;2023-08-06T02:12:47;24.31;93.24
67799;SHT30;54596;43.216;27.904;2023-08-06T02:15:13;24.31;93.25
67799;SHT30;54596;43.216;27.904;2023-08-06T02:17:38;24.33;93.26
67799;SHT30;54596;43.216;27.904;2023-08-06T02:20:05;24.37;93.10
67799;SHT30;54596;43.216;27.904;2023-08-06T02:22:30;24.36;93.06
67799;SHT30;54596;43.216;27.904;2023-08-06T02:24:56;24.38;92.94
67799;SHT30;54596;43.216;27.904;2023-08-06T02:27:21;24.41;92.98
67799;SHT30;54596;43.216;27.904;2023-08-06T02:29:47;24.38;92.99
67799;SHT30;54596;43.216;27.904;2023-08-06T02:32:12;24.36;93.06
67799;SHT30;54596;43.216;27.904;2023-08-06T02:34:37;24.37;93.05
67799;SHT30;54596;43.216;27.904;2023-08-06T02:37:03;24.40;93.02
67799;SHT30;54596;43.216;27.904;2023-08-06T02:39:29;24.37;92.98
67799;SHT30;54596;43.216;27.904;2023-08-06T02:41:54;24.31;93.07
67799;SHT30;54596;43.216;27.904;2023-08-06T02:44:20;24.30;93.11
67799;SHT30;54596;43.216;27.904;2023-08-06T02:46:45;24.29;93.22
67799;SHT30;54596;43.216;27.904;2023-08-06T02:49:11;24.30;93.24
67799;SHT30;54596;43.216;27.904;2023-08-06T02:51:36;24.27;93.16
67799;SHT30;54596;43.216;27.904;2023-08-06T02:54:01;24.27;93.05
67799;SHT30;54596;43.216;27.904;2023-08-06T02:56:27;24.29;92.97
67799;SHT30;54596;43.216;27.904;2023-08-06T02:58:52;24.26;92.99
67799;SHT30;54596;43.216;27.904;2023-08-06T03:01:18;24.27;93.11
67799;SHT30;54596;43.216;27.904;2023-08-06T03:03:43;24.30;93.08
67799;SHT30;54596;43.216;27.904;2023-08-06T03:06:09;24.30;93.02
67799;SHT30;54596;43.216;27.904;2023-08-06T03:08:34;24.33;93.00
67799;SHT30;54596;43.216;27.904;2023-08-06T03:11:00;24.34;92.88
67799;SHT30;54596;43.216;27.904;2023-08-06T03:13:25;24.40;92.73
67799;SHT30;54596;43.216;27.904;2023-08-06T03:15:55;24.44;92.63
67799;SHT30;54596;43.216;27.904;2023-08-06T03:18:21;24.50;92.58
67799;SHT30;54596;43.216;27.904;2023-08-06T03:20:46;24.51;92.51
67799;SHT30;54596;43.216;27.904;2023-08-06T03:23:12;24.53;92.53
67799;SHT30;54596;43.216;27.904;2023-08-06T03:25:37;24.55;92.48
67799;SHT30;54596;43.216;27.904;2023-08-06T03:28:03;24.48;92.61
67799;SHT30;54596;43.216;27.904;2023-08-06T03:30:29;24.51;92.54
67799;SHT30;54596;43.216;27.904;2023-08-06T03:32:54;24.55;92.48
67799;SHT30;54596;43.216;27.904;2023-08-06T03:35:20;24.58;92.46
67799;SHT30;54596;43.216;27.904;2023-08-06T03:37:45;24.58;92.42
67799;SHT30;54596;43.216;27.904;2023-08-06T03:40:11;24.60;92.38
67799;SHT30;54596;43.216;27.904;2023-08-06T03:42:36;24.50;92.39
67799;SHT30;54596;43.216;27.904;2023-08-06T03:45:02;24.53;92.36
67799;SHT30;54596;43.216;27.904;2023-08-06T03:47:28;24.47;92.27
67799;SHT30;54596;43.216;27.904;2023-08-06T03:49:53;24.50;92.23
67799;SHT30;54596;43.216;27.904;2023-08-06T03:52:19;24.57;92.15
67799;SHT30;54596;43.216;27.904;2023-08-06T03:54:44;24.55;92.09
67799;SHT30;54596;43.216;27.904;2023-08-06T03:57:10;24.58;92.05
67799;SHT30;54596;43.216;27.904;2023-08-06T03:59:35;24.62;91.99
67799;SHT30;54596;43.216;27.904;2023-08-06T04:02:01;24.64;91.93
67799;SHT30;54596;43.216;27.904;2023-08-06T04:04:27;24.72;91.72
67799;SHT30;54596;43.216;27.904;2023-08-06T04:06:52;24.75;91.59
67799;SHT30;54596;43.216;27.904;2023-08-06T04:09:18;24.82;91.48
67799;SHT30;54596;43.216;27.904;2023-08-06T04:11:43;24.89;91.40
67799;SHT30;54596;43.216;27.904;2023-08-06T04:14:08;24.96;91.20
67799;SHT30;54596;43.216;27.904;2023-08-06T04:16:34;25.07;91.04
67799;SHT30;54596;43.216;27.904;2023-08-06T04:18:59;25.10;90.98
67799;SHT30;54596;43.216;27.904;2023-08-06T04:21:25;25.23;90.81
67799;SHT30;54596;43.216;27.904;2023-08-06T04:23:50;25.37;90.55
67799;SHT30;54596;43.216;27.904;2023-08-06T04:26:16;25.43;90.39
67799;SHT30;54596;43.216;27.904;2023-08-06T04:28:41;25.50;90.30
67799;SHT30;54596;43.216;27.904;2023-08-06T04:31:06;25.54;90.19
67799;SHT30;54596;43.216;27.904;2023-08-06T04:33:32;25.61;90.07
67799;SHT30;54596;43.216;27.904;2023-08-06T04:35:58;25.71;89.89
67799;SHT30;54596;43.216;27.904;2023-08-06T04:38:24;25.84;89.70
67799;SHT30;54596;43.216;27.904;2023-08-06T04:40:53;25.95;89.52
67799;SHT30;54596;43.216;27.904;2023-08-06T04:43:18;26.10;89.09
67799;SHT30;54596;43.216;27.904;2023-08-06T04:45:50;26.12;88.96
67799;SHT30;54596;43.216;27.904;2023-08-06T04:48:17;26.24;88.73
67799;SHT30;54596;43.216;27.904;2023-08-06T04:50:44;26.24;88.69
67799;SHT30;54596;43.216;27.904;2023-08-06T04:53:10;26.33;88.43
67799;SHT30;54596;43.216;27.904;2023-08-06T04:55:35;26.45;88.15
67799;SHT30;54596;43.216;27.904;2023-08-06T04:58:01;26.93;87.09
67799;SHT30;54596;43.216;27.904;2023-08-06T05:00:26;26.85;87.19
67799;SHT30;54596;43.216;27.904;2023-08-06T05:02:51;26.78;87.17
67799;SHT30;54596;43.216;27.904;2023-08-06T05:05:17;26.91;87.06
67799;SHT30;54596;43.216;27.904;2023-08-06T05:07:42;26.98;86.51
67799;SHT30;54596;43.216;27.904;2023-08-06T05:10:08;27.09;86.41
67799;SHT30;54596;43.216;27.904;2023-08-06T05:12:34;26.89;86.66
67799;SHT30;54596;43.216;27.904;2023-08-06T05:14:59;26.69;87.25
67799;SHT30;54596;43.216;27.904;2023-08-06T05:17:24;26.57;87.62
67799;SHT30;54596;43.216;27.904;2023-08-06T05:19:50;26.67;87.53
67799;SHT30;54596;43.216;27.904;2023-08-06T05:22:16;26.93;87.10
67799;SHT30;54596;43.216;27.904;2023-08-06T05:24:41;27.18;86.55
67799;SHT30;54596;43.216;27.904;2023-08-06T05:27:06;27.50;86.06
67799;SHT30;54596;43.216;27.904;2023-08-06T05:29:32;27.61;85.64
67799;SHT30;54596;43.216;27.904;2023-08-06T05:31:57;27.86;84.83
67799;SHT30;54596;43.216;27.904;2023-08-06T05:34:23;28.10;84.40
67799;SHT30;54596;43.216;27.904;2023-08-06T05:36:48;28.62;82.93
67799;SHT30;54596;43.216;27.904;2023-08-06T05:39:14;29.13;81.67
67799;SHT30;54596;43.216;27.904;2023-08-06T05:41:39;29.71;80.10
67799;SHT30;54596;43.216;27.904;2023-08-06T05:44:05;31.30;76.30
67799;SHT30;54596;43.216;27.904;2023-08-06T05:46:31;33.31;70.89
67799;SHT30;54596;43.216;27.904;2023-08-06T05:48:56;33.33;69.54
67799;SHT30;54596;43.216;27.904;2023-08-06T05:51:22;34.13;68.10
67799;SHT30;54596;43.216;27.904;2023-08-06T05:53:48;33.59;68.74
67799;SHT30;54596;43.216;27.904;2023-08-06T05:56:15;34.99;66.12
67799;SHT30;54596;43.216;27.904;2023-08-06T05:58:41;35.55;64.19
67799;SHT30;54596;43.216;27.904;2023-08-06T06:01:06;36.33;62.58
67799;SHT30;54596;43.216;27.904;2023-08-06T06:03:32;37.15;60.48
67799;SHT30;54596;43.216;27.904;2023-08-06T06:05:58;36.40;62.02
67799;SHT30;54596;43.216;27.904;2023-08-06T06:08:24;36.95;60.83
67799;SHT30;54596;43.216;27.904;2023-08-06T06:10:50;34.93;64.25
67799;SHT30;54596;43.216;27.904;2023-08-06T06:13:15;35.26;63.58
67799;SHT30;54596;43.216;27.904;2023-08-06T06:15:40;35.51;63.08
67799;SHT30;54596;43.216;27.904;2023-08-06T06:18:06;34.74;64.63
67799;SHT30;54596;43.216;27.904;2023-08-06T06:20:32;35.09;63.85
67799;SHT30;54596;43.216;27.904;2023-08-06T06:22:58;35.51;63.61
67799;SHT30;54596;43.216;27.904;2023-08-06T06:25:23;35.34;62.70
67799;SHT30;54596;43.216;27.904;2023-08-06T06:27:49;34.44;65.58
67799;SHT30;54596;43.216;27.904;2023-08-06T06:30:14;35.29;64.14
67799;SHT30;54596;43.216;27.904;2023-08-06T06:32:40;35.62;63.26
67799;SHT30;54596;43.216;27.904;2023-08-06T06:35:06;36.00;61.80
67799;SHT30;54596;43.216;27.904;2023-08-06T06:37:32;35.74;62.73
67799;SHT30;54596;43.216;27.904;2023-08-06T06:39:57;36.37;61.57
67799;SHT30;54596;43.216;27.904;2023-08-06T06:42:22;35.99;61.60
67799;SHT30;54596;43.216;27.904;2023-08-06T06:44:48;36.09;62.12
67799;SHT30;54596;43.216;27.904;2023-08-06T06:47:14;36.33;61.90
67799;SHT30;54596;43.216;27.904;2023-08-06T06:49:39;36.10;61.64
67799;SHT30;54596;43.216;27.904;2023-08-06T06:52:05;34.51;65.01
67799;SHT30;54596;43.216;27.904;2023-08-06T06:54:31;35.09;63.90
67799;SHT30;54596;43.216;27.904;2023-08-06T06:56:57;34.78;64.89
67799;SHT30;54596;43.216;27.904;2023-08-06T06:59:22;34.27;65.71
67799;SHT30;54596;43.216;27.904;2023-08-06T07:01:47;34.88;64.23
67799;SHT30;54596;43.216;27.904;2023-08-06T07:04:13;34.74;64.23
67799;SHT30;54596;43.216;27.904;2023-08-06T07:06:38;35.78;62.71
67799;SHT30;54596;43.216;27.904;2023-08-06T07:09:04;35.84;61.88
67799;SHT30;54596;43.216;27.904;2023-08-06T07:11:29;37.00;60.31
67799;SHT30;54596;43.216;27.904;2023-08-06T07:13:58;37.77;57.85
67799;SHT30;54596;43.216;27.904;2023-08-06T07:16:24;37.75;58.17
67799;SHT30;54596;43.216;27.904;2023-08-06T07:18:51;35.64;62.39
67799;SHT30;54596;43.216;27.904;2023-08-06T07:21:18;35.74;62.30
67799;SHT30;54596;43.216;27.904;2023-08-06T07:23:43;34.67;64.30
67799;SHT30;54596;43.216;27.904;2023-08-06T07:26:09;35.09;63.80
67799;SHT30;54596;43.216;27.904;2023-08-06T07:28:34;36.29;61.65
67799;SHT30;54596;43.216;27.904;2023-08-06T07:31:00;35.98;62.48
67799;SHT30;54596;43.216;27.904;2023-08-06T07:33:27;35.33;63.40
67799;SHT30;54596;43.216;27.904;2023-08-06T07:35:53;34.52;65.12
67799;SHT30;54596;43.216;27.904;2023-08-06T07:38:18;34.84;64.89
67799;SHT30;54596;43.216;27.904;2023-08-06T07:40:44;35.58;63.69
67799;SHT30;54596;43.216;27.904;2023-08-06T07:43:10;34.95;63.85
67799;SHT30;54596;43.216;27.904;2023-08-06T07:45:35;34.99;64.30
67799;SHT30;54596;43.216;27.904;2023-08-06T07:48:01;35.09;64.05
67799;SHT30;54596;43.216;27.904;2023-08-06T07:50:27;35.37;62.74
67799;SHT30;54596;43.216;27.904;2023-08-06T07:52:52;36.13;61.63
67799;SHT30;54596;43.216;27.904;2023-08-06T07:55:18;35.93;62.15
67799;SHT30;54596;43.216;27.904;2023-08-06T07:57:43;35.31;62.76
67799;SHT30;54596;43.216;27.904;2023-08-06T08:00:09;35.16;63.96
67799;SHT30;54596;43.216;27.904;2023-08-06T08:02:35;36.84;59.57
67799;SHT30;54596;43.216;27.904;2023-08-06T08:05:00;36.15;61.55
67799;SHT30;54596;43.216;27.904;2023-08-06T08:07:26;35.99;60.87
67799;SHT30;54596;43.216;27.904;2023-08-06T08:09:53;36.52;59.36
67799;SHT30;54596;43.216;27.904;2023-08-06T08:12:19;35.92;60.34
67799;SHT30;54596;43.216;27.904;2023-08-06T08:14:44;34.75;61.52
67799;SHT30;54596;43.216;27.904;2023-08-06T08:17:11;35.95;61.01
67799;SHT30;54596;43.216;27.904;2023-08-06T08:19:37;36.39;60.00
67799;SHT30;54596;43.216;27.904;2023-08-06T08:22:02;36.12;60.31
67799;SHT30;54596;43.216;27.904;2023-08-06T08:24:28;35.41;61.37
67799;SHT30;54596;43.216;27.904;2023-08-06T08:26:56;35.03;62.62
67799;SHT30;54596;43.216;27.904;2023-08-06T08:29:22;33.95;64.22
67799;SHT30;54596;43.216;27.904;2023-08-06T08:31:48;34.26;64.80
67799;SHT30;54596;43.216;27.904;2023-08-06T08:34:17;34.07;64.36
67799;SHT30;54596;43.216;27.904;2023-08-06T08:36:43;33.57;66.23
67799;SHT30;54596;43.216;27.904;2023-08-06T08:39:09;33.27;67.48
67799;SHT30;54596;43.216;27.904;2023-08-06T08:41:36;32.14;68.37
67799;SHT30;54596;43.216;27.904;2023-08-06T08:44:02;31.49;69.21
67799;SHT30;54596;43.216;27.904;2023-08-06T08:46:29;31.96;69.63
67799;SHT30;54596;43.216;27.904;2023-08-06T08:48:55;31.71;70.05
67799;SHT30;54596;43.216;27.904;2023-08-06T08:51:23;31.20;71.61
67799;SHT30;54596;43.216;27.904;2023-08-06T08:53:49;31.79;70.60
67799;SHT30;54596;43.216;27.904;2023-08-06T08:56:19;31.44;70.69
67799;SHT30;54596;43.216;27.904;2023-08-06T08:58:44;31.34;72.08
67799;SHT30;54596;43.216;27.904;2023-08-06T09:01:11;31.33;71.43
67799;SHT30;54596;43.216;27.904;2023-08-06T09:03:36;30.79;73.67
67799;SHT30;54596;43.216;27.904;2023-08-06T09:06:03;31.39;72.27
67799;SHT30;54596;43.216;27.904;2023-08-06T09:08:36;31.35;72.31
67799;SHT30;54596;43.216;27.904;2023-08-06T09:11:04;31.20;72.65
67799;SHT30;54596;43.216;27.904;2023-08-06T09:13:30;30.96;72.96
67799;SHT30;54596;43.216;27.904;2023-08-06T09:15:55;31.04;72.09
67799;SHT30;54596;43.216;27.904;2023-08-06T09:18:27;31.61;71.15
67799;SHT30;54596;43.216;27.904;2023-08-06T09:20:54;30.74;72.58
67799;SHT30;54596;43.216;27.904;2023-08-06T09:23:20;30.34;73.80
67799;SHT30;54596;43.216;27.904;2023-08-06T09:25:45;30.13;74.39
67799;SHT30;54596;43.216;27.904;2023-08-06T09:28:11;30.05;75.30
67799;SHT30;54596;43.216;27.904;2023-08-06T09:30:37;29.86;75.82
67799;SHT30;54596;43.216;27.904;2023-08-06T09:33:03;30.12;75.48
67799;SHT30;54596;43.216;27.904;2023-08-06T09:35:30;29.92;75.85
67799;SHT30;54596;43.216;27.904;2023-08-06T09:37:59;29.86;76.28
67799;SHT30;54596;43.216;27.904;2023-08-06T09:40:32;29.26;77.43
67799;SHT30;54596;43.216;27.904;2023-08-06T09:42:59;28.98;77.33
67799;SHT30;54596;43.216;27.904;2023-08-06T09:45:35;28.88;77.74
67799;SHT30;54596;43.216;27.904;2023-08-06T09:48:08;28.82;78.50
67799;SHT30;54596;43.216;27.904;2023-08-06T09:50:36;28.95;77.89
67799;SHT30;54596;43.216;27.904;2023-08-06T09:53:06;28.74;78.42
67799;SHT30;54596;43.216;27.904;2023-08-06T09:55:33;28.72;79.49
67799;SHT30;54596;43.216;27.904;2023-08-06T09:57:59;28.69;79.70
67799;SHT30;54596;43.216;27.904;2023-08-06T10:00:26;28.40;80.39
67799;SHT30;54596;43.216;27.904;2023-08-06T10:02:53;28.37;80.99
67799;SHT30;54596;43.216;27.904;2023-08-06T10:05:22;28.45;80.46
67799;SHT30;54596;43.216;27.904;2023-08-06T10:07:48;28.49;80.45
67799;SHT30;54596;43.216;27.904;2023-08-06T10:10:14;28.76;80.03
67799;SHT30;54596;43.216;27.904;2023-08-06T10:12:43;28.92;79.86
67799;SHT30;54596;43.216;27.904;2023-08-06T10:15:14;29.14;78.98
67799;SHT30;54596;43.216;27.904;2023-08-06T10:17:41;29.06;79.41
67799;SHT30;54596;43.216;27.904;2023-08-06T10:20:08;29.27;78.59
67799;SHT30;54596;43.216;27.904;2023-08-06T10:22:34;28.85;79.82
67799;SHT30;54596;43.216;27.904;2023-08-06T10:25:00;28.55;81.18
67799;SHT30;54596;43.216;27.904;2023-08-06T10:27:41;28.86;80.84
67799;SHT30;54596;43.216;27.904;2023-08-06T10:32:51;28.36;80.70
67799;SHT30;54596;43.216;27.904;2023-08-06T10:35:42;28.28;82.25
67799;SHT30;54596;43.216;27.904;2023-08-06T10:38:13;28.38;82.16
67799;SHT30;54596;43.216;27.904;2023-08-06T10:40:40;28.30;82.20
67799;SHT30;54596;43.216;27.904;2023-08-06T10:43:07;28.18;81.59
67799;SHT30;54596;43.216;27.904;2023-08-06T10:45:35;28.31;81.48
67799;SHT30;54596;43.216;27.904;2023-08-06T10:48:01;28.47;81.67
67799;SHT30;54596;43.216;27.904;2023-08-06T10:50:27;28.47;81.68
67799;SHT30;54596;43.216;27.904;2023-08-06T10:52:53;28.65;81.38
67799;SHT30;54596;43.216;27.904;2023-08-06T10:55:23;28.74;81.41
67799;SHT30;54596;43.216;27.904;2023-08-06T10:57:50;28.36;82.32
67799;SHT30;54596;43.216;27.904;2023-08-06T11:00:15;28.25;82.97
67799;SHT30;54596;43.216;27.904;2023-08-06T11:02:41;28.27;82.74
67799;SHT30;54596;43.216;27.904;2023-08-06T11:05:08;28.10;83.29
67799;SHT30;54596;43.216;27.904;2023-08-06T11:07:38;28.09;83.49
67799;SHT30;54596;43.216;27.904;2023-08-06T11:10:04;27.82;84.22
67799;SHT30;54596;43.216;27.904;2023-08-06T11:12:31;28.13;83.73
67799;SHT30;54596;43.216;27.904;2023-08-06T11:14:57;28.05;83.48
67799;SHT30;54596;43.216;27.904;2023-08-06T11:17:22;28.00;83.98
67799;SHT30;54596;43.216;27.904;2023-08-06T11:19:48;27.78;84.27
67799;SHT30;54596;43.216;27.904;2023-08-06T11:22:17;27.55;84.89
67799;SHT30;54596;43.216;27.904;2023-08-06T11:24:43;27.66;84.69
67799;SHT30;54596;43.216;27.904;2023-08-06T11:27:15;27.82;84.61
67799;SHT30;54596;43.216;27.904;2023-08-06T11:29:42;28.03;84.03
67799;SHT30;54596;43.216;27.904;2023-08-06T11:32:08;28.43;83.20
67799;SHT30;54596;43.216;27.904;2023-08-06T11:34:34;28.47;82.95
67799;SHT30;54596;43.216;27.904;2023-08-06T11:37:02;28.36;83.25
67799;SHT30;54596;43.216;27.904;2023-08-06T11:39:27;28.44;83.47
67799;SHT30;54596;43.216;27.904;2023-08-06T11:41:53;28.21;83.58
67799;SHT30;54596;43.216;27.904;2023-08-06T11:44:19;28.20;83.73
67799;SHT30;54596;43.216;27.904;2023-08-06T11:46:54;28.31;83.74
67799;SHT30;54596;43.216;27.904;2023-08-06T11:52:18;28.20;83.89
67799;SHT30;54596;43.216;27.904;2023-08-06T11:55:09;28.03;84.56
67799;SHT30;54596;43.216;27.904;2023-08-06T11:57:39;27.92;84.75
67799;SHT30;54596;43.216;27.904;2023-08-06T12:00:11;27.69;85.43
67799;SHT30;54596;43.216;27.904;2023-08-06T12:02:41;27.78;85.40
67799;SHT30;54596;43.216;27.904;2023-08-06T12:05:20;27.99;85.62
67799;SHT30;54596;43.216;27.904;2023-08-06T12:07:47;27.81;85.48
67799;SHT30;54596;43.216;27.904;2023-08-06T12:10:14;27.77;81.48
67799;SHT30;54596;43.216;27.904;2023-08-06T12:12:40;28.10;81.28
67799;SHT30;54596;43.216;27.904;2023-08-06T12:15:06;28.37;81.12
67799;SHT30;54596;43.216;27.904;2023-08-06T12:17:32;28.43;81.62
67799;SHT30;54596;43.216;27.904;2023-08-06T12:19:58;28.38;81.74
67799;SHT30;54596;43.216;27.904;2023-08-06T12:22:24;28.37;81.27
67799;SHT30;54596;43.216;27.904;2023-08-06T12:24:49;28.12;81.12
67799;SHT30;54596;43.216;27.904;2023-08-06T12:27:15;28.03;81.28
67799;SHT30;54596;43.216;27.904;2023-08-06T12:29:45;28.02;80.69
67799;SHT30;54596;43.216;27.904;2023-08-06T12:32:11;27.84;81.08
67799;SHT30;54596;43.216;27.904;2023-08-06T12:34:41;27.86;80.55
67799;SHT30;54596;43.216;27.904;2023-08-06T12:37:07;27.92;80.79
67799;SHT30;54596;43.216;27.904;2023-08-06T12:39:33;27.78;81.09
67799;SHT30;54596;43.216;27.904;2023-08-06T12:42:00;27.69;80.94
67799;SHT30;54596;43.216;27.904;2023-08-06T12:44:26;27.65;80.22
67799;SHT30;54596;43.216;27.904;2023-08-06T12:46:51;27.61;81.70
67799;SHT30;54596;43.216;27.904;2023-08-06T12:49:17;27.45;81.11
67799;SHT30;54596;43.216;27.904;2023-08-06T12:51:43;27.48;80.56
67799;SHT30;54596;43.216;27.904;2023-08-06T12:54:09;27.57;80.33
67799;SHT30;54596;43.216;27.904;2023-08-06T12:56:34;27.78;80.31
67799;SHT30;54596;43.216;27.904;2023-08-06T12:59:00;27.89;79.47
67799;SHT30;54596;43.216;27.904;2023-08-06T13:01:25;28.03;79.99
67799;SHT30;54596;43.216;27.904;2023-08-06T13:03:51;28.24;79.78
67799;SHT30;54596;43.216;27.904;2023-08-06T13:06:16;28.34;78.90
67799;SHT30;54596;43.216;27.904;2023-08-06T13:08:42;28.41;77.72
67799;SHT30;54596;43.216;27.904;2023-08-06T13:11:07;28.59;78.06
67799;SHT30;54596;43.216;27.904;2023-08-06T13:13:33;28.54;77.52
67799;SHT30;54596;43.216;27.904;2023-08-06T13:15:58;28.45;76.80
67799;SHT30;54596;43.216;27.904;2023-08-06T13:18:24;28.40;77.25
67799;SHT30;54596;43.216;27.904;2023-08-06T13:20:53;28.37;77.28
67799;SHT30;54596;43.216;27.904;2023-08-06T13:23:19;28.33;77.59
67799;SHT30;54596;43.216;27.904;2023-08-06T13:25:45;28.25;76.63
67799;SHT30;54596;43.216;27.904;2023-08-06T13:28:10;28.24;77.00
67799;SHT30;54596;43.216;27.904;2023-08-06T13:30:36;28.18;77.73
67799;SHT30;54596;43.216;27.904;2023-08-06T13:33:09;28.20;76.46
67799;SHT30;54596;43.216;27.904;2023-08-06T13:35:35;28.20;76.94
67799;SHT30;54596;43.216;27.904;2023-08-06T13:38:00;28.20;76.28
67799;SHT30;54596;43.216;27.904;2023-08-06T13:40:28;28.20;76.43
67799;SHT30;54596;43.216;27.904;2023-08-06T13:42:55;28.27;74.91
67799;SHT30;54596;43.216;27.904;2023-08-06T13:45:20;28.27;75.15
67799;SHT30;54596;43.216;27.904;2023-08-06T13:47:46;28.41;73.21
67799;SHT30;54596;43.216;27.904;2023-08-06T13:50:13;28.44;73.14
67799;SHT30;54596;43.216;27.904;2023-08-06T13:52:39;28.51;72.95
67799;SHT30;54596;43.216;27.904;2023-08-06T13:55:05;28.52;73.11
67799;SHT30;54596;43.216;27.904;2023-08-06T13:57:30;28.51;73.10
67799;SHT30;54596;43.216;27.904;2023-08-06T13:59:56;28.57;73.39
67799;SHT30;54596;43.216;27.904;2023-08-06T14:02:22;28.59;73.73
67799;SHT30;54596;43.216;27.904;2023-08-06T14:04:47;28.59;74.21
67799;SHT30;54596;43.216;27.904;2023-08-06T14:07:13;28.72;74.02
67799;SHT30;54596;43.216;27.904;2023-08-06T14:09:40;28.74;74.06
67799;SHT30;54596;43.216;27.904;2023-08-06T14:12:07;28.79;74.02
67799;SHT30;54596;43.216;27.904;2023-08-06T14:14:33;28.80;73.56
67799;SHT30;54596;43.216;27.904;2023-08-06T14:16:58;28.86;73.53
67799;SHT30;54596;43.216;27.904;2023-08-06T14:19:24;28.86;73.06
67799;SHT30;54596;43.216;27.904;2023-08-06T14:21:49;28.92;72.81
67799;SHT30;54596;43.216;27.904;2023-08-06T14:24:15;28.91;72.84
67799;SHT30;54596;43.216;27.904;2023-08-06T14:26:40;28.96;72.66
67799;SHT30;54596;43.216;27.904;2023-08-06T14:29:06;28.91;72.63
67799;SHT30;54596;43.216;27.904;2023-08-06T14:31:31;28.72;72.79
67799;SHT30;54596;43.216;27.904;2023-08-06T14:33:57;28.48;73.10
67799;SHT30;54596;43.216;27.904;2023-08-06T14:36:22;28.43;72.70
67799;SHT30;54596;43.216;27.904;2023-08-06T14:38:48;28.33;72.76
67799;SHT30;54596;43.216;27.904;2023-08-06T14:41:13;28.38;73.20
67799;SHT30;54596;43.216;27.904;2023-08-06T14:43:39;28.34;73.51
67799;SHT30;54596;43.216;27.904;2023-08-06T14:46:04;28.38;73.00
67799;SHT30;54596;43.216;27.904;2023-08-06T14:48:33;28.40;72.84
67799;SHT30;54596;43.216;27.904;2023-08-06T14:50:58;28.33;72.72
67799;SHT30;54596;43.216;27.904;2023-08-06T14:53:24;28.37;71.95
67799;SHT30;54596;43.216;27.904;2023-08-06T14:55:49;28.36;72.08
67799;SHT30;54596;43.216;27.904;2023-08-06T14:58:15;28.31;72.09
67799;SHT30;54596;43.216;27.904;2023-08-06T15:00:41;28.27;72.09
67799;SHT30;54596;43.216;27.904;2023-08-06T15:03:07;28.30;71.60
67799;SHT30;54596;43.216;27.904;2023-08-06T15:05:32;28.28;70.85
67799;SHT30;54596;43.216;27.904;2023-08-06T15:07:58;28.28;70.76
67799;SHT30;54596;43.216;27.904;2023-08-06T15:10:23;28.36;70.64
67799;SHT30;54596;43.216;27.904;2023-08-06T15:12:49;28.31;70.27
67799;SHT30;54596;43.216;27.904;2023-08-06T15:15:14;28.33;70.40
67799;SHT30;54596;43.216;27.904;2023-08-06T15:17:40;28.36;70.70
67799;SHT30;54596;43.216;27.904;2023-08-06T15:20:06;28.36;70.72
67799;SHT30;54596;43.216;27.904;2023-08-06T15:22:32;28.34;71.08
67799;SHT30;54596;43.216;27.904;2023-08-06T15:24:59;28.37;71.23
67799;SHT30;54596;43.216;27.904;2023-08-06T15:27:25;28.43;70.82